KVJI/VJI METAR and TAF weather

Enter ICAO airport designator
Station Type Date Time Source
KVJI METAR 2019/08/25 19:55 UTC NOAA

KVJI 251955Z AUTO 14007KT 10SM OVC032 22/16 A3014 RMK AO2 T02230162


Station Type Date Time Source
KVJI Decoded METAR 2019/08/25 19:55 UTC NOAA

Station name not available
Aug 25, 2019 - 03:55 PM EDT / 2019.08.25 1955 UTC
Wind: from the SE (140 degrees) at 8 MPH (7 KT):0
Visibility: 10 mile(s):0
Sky conditions: overcast
Temperature: 72.1 F (22.3 C)
Dew Point: 61.2 F (16.2 C)
Relative Humidity: 68%
Pressure (altimeter): 30.14 in. Hg (1020 hPa)
ob: KVJI 251955Z AUTO 14007KT 10SM OVC032 22/16 A3014 RMK AO2 T02230162
cycle: 20

Station Type Date Time Source
KVJI TAF UTC NOAA

Error!

Example: see airport list